Winston Salem, NC (27106)

3:57 AM EDT on September 01, 2015 (GMT -0400)
Sunny Dell Lakes | | Change Station
CLOSE
Current Station
Personal Weather Station
Location: Winston-Salem, NC
Elevation: 774 ft
Nearby Weather Stations

Elev 774 ft 36.14 °N, 80.33 °W | Updated 3 seconds ago

Clear
Clear
67.2 °F
Feels Like 67.2 °F
N
0.0
Wind Variable Wind from NW
Gusts 0.0 mph

Today
High -- | Low -- °F
--% Chance of Precip.
Yesterday
High -- | Low -- °F
Precip. -- in
6:52 AM 7:49 PM
Waning Gibbous, 90% visible
Pressure 30.08 in
Visibility 10.0 miles
Clouds Clear
Dew Point 66 °F
Humidity 95%
Rainfall 0.00 in
Snow Depth Not available.
UV 0.0 out of 12
Pollen 6.90 out of 12
Air Quality Not available.
Flu Activity Not available.
METAR KINT 010754Z AUTO 00000KT 10SM CLR 20/19 A3011 RMK AO2 SLP185 T02000189
Pressure 30.08 in
Visibility 10.0 miles
Clouds Clear
Dew Point 66 °F
Humidity 95%
Rainfall 0.00 in
Snow Depth Not available.
UV 0.0 out of 12
Pollen 6.90 out of 12
Air Quality Not available.
Flu Activity Not available.
METAR KINT 010754Z AUTO 00000KT 10SM CLR 20/19 A3011 RMK AO2 SLP185 T02000189

10-Day Weather Forecast

×

Almanac

Astronomy

Sep. 01, 2015 Rise Set
Actual Time
Civil Twilight
Nautical Twilight
Astronomical Twilight
Moon
Length of Visible Light
Length of Day
Tomorrow will be .
, % of the Moon is Illuminated

Today's Extremes

State Highs State Lows

Community

WunderPhotos

Upload Photos

1,851,488 photos uploaded!

WunderBlogs® & News

Nearby

Air Quality

  Air Quality AQ Index Pollutant
Not available.

Snow Depth

Station Depth Elevation

Earthquake Activity

City Distance Mag. Time & Date
Minimum magnitude displayed is 2.5.

Coastal Water Temperatures

Place Temperature

Stations

Nearby Weather Stations

Station Location Temp. Windchill Dew Point Humidity Wind Precip. Elev Updated Type